sensor_id;sensor_type;location;lat;lon;timestamp;pressure;altitude;pressure_sealevel;temperature;humidity
62237;BME280;69163;48.778;2.308;2023-04-15T00:01:18;99693.28;;;17.71;32.43
62237;BME280;69163;48.778;2.308;2023-04-15T00:03:43;99690.84;;;17.70;32.43
62237;BME280;69163;48.778;2.308;2023-04-15T00:06:08;99686.63;;;17.96;32.39
62237;BME280;69163;48.778;2.308;2023-04-15T00:08:33;99679.48;;;17.45;32.42
62237;BME280;69163;48.778;2.308;2023-04-15T00:10:59;99675.62;;;17.68;32.42
62237;BME280;69163;48.778;2.308;2023-04-15T00:13:23;99674.87;;;17.69;32.42
62237;BME280;69163;48.778;2.308;2023-04-15T00:15:48;99671.05;;;17.73;32.36
62237;BME280;69163;48.778;2.308;2023-04-15T00:18:14;99670.02;;;17.71;32.37
62237;BME280;69163;48.778;2.308;2023-04-15T00:20:39;99665.52;;;17.71;32.35
62237;BME280;69163;48.778;2.308;2023-04-15T00:23:04;99660.96;;;17.72;32.34
62237;BME280;69163;48.778;2.308;2023-04-15T00:25:29;99656.84;;;17.72;32.34
62237;BME280;69163;48.778;2.308;2023-04-15T00:27:55;99650.86;;;17.44;32.35
62237;BME280;69163;48.778;2.308;2023-04-15T00:30:20;99651.09;;;17.43;32.36
62237;BME280;69163;48.778;2.308;2023-04-15T00:32:45;99653.23;;;17.47;32.33
62237;BME280;69163;48.778;2.308;2023-04-15T00:35:10;99651.34;;;17.42;32.36
62237;BME280;69163;48.778;2.308;2023-04-15T00:37:36;99646.98;;;17.68;32.33
62237;BME280;69163;48.778;2.308;2023-04-15T00:40:01;99647.28;;;17.69;32.30
62237;BME280;69163;48.778;2.308;2023-04-15T00:42:27;99645.77;;;17.67;32.34
62237;BME280;69163;48.778;2.308;2023-04-15T00:44:52;99643.58;;;17.39;32.36
62237;BME280;69163;48.778;2.308;2023-04-15T00:47:18;99639.85;;;17.64;32.36
62237;BME280;69163;48.778;2.308;2023-04-15T00:49:43;99636.35;;;17.54;32.45
62237;BME280;69163;48.778;2.308;2023-04-15T00:52:08;99635.22;;;17.61;32.38
62237;BME280;69163;48.778;2.308;2023-04-15T00:54:33;99637.91;;;17.88;32.34
62237;BME280;69163;48.778;2.308;2023-04-15T00:56:59;99635.58;;;17.64;32.34
62237;BME280;69163;48.778;2.308;2023-04-15T00:59:24;99624.36;;;17.56;32.42
62237;BME280;69163;48.778;2.308;2023-04-15T01:01:49;99628.81;;;17.69;32.27
62237;BME280;69163;48.778;2.308;2023-04-15T01:04:15;99626.76;;;17.66;32.31
62237;BME280;69163;48.778;2.308;2023-04-15T01:06:39;99624.65;;;17.68;32.28
62237;BME280;69163;48.778;2.308;2023-04-15T01:09:04;99626.89;;;17.72;32.22
62237;BME280;69163;48.778;2.308;2023-04-15T01:11:31;99624.77;;;17.67;32.27
62237;BME280;69163;48.778;2.308;2023-04-15T01:13:55;99623.73;;;18.00;32.42
62237;BME280;69163;48.778;2.308;2023-04-15T01:16:20;99624.62;;;17.36;32.35
62237;BME280;69163;48.778;2.308;2023-04-15T01:18:45;99623.78;;;17.64;32.29
62237;BME280;69163;48.778;2.308;2023-04-15T01:21:11;99620.53;;;17.54;32.38
62237;BME280;69163;48.778;2.308;2023-04-15T01:23:36;99616.27;;;17.34;32.34
62237;BME280;69163;48.778;2.308;2023-04-15T01:26:01;99611.88;;;17.60;32.33
62237;BME280;69163;48.778;2.308;2023-04-15T01:28:27;99608.81;;;17.52;32.40
62237;BME280;69163;48.778;2.308;2023-04-15T01:33:17;99600.60;;;17.63;32.28
62237;BME280;69163;48.778;2.308;2023-04-15T01:35:42;99603.81;;;17.88;32.25
62237;BME280;69163;48.778;2.308;2023-04-15T01:38:09;99618.26;;;17.62;32.26
62237;BME280;69163;48.778;2.308;2023-04-15T01:40:32;99611.59;;;17.67;32.24
62237;BME280;69163;48.778;2.308;2023-04-15T01:42:57;99602.21;;;17.63;32.26
62237;BME280;69163;48.778;2.308;2023-04-15T01:45:22;99608.57;;;17.62;32.24
62237;BME280;69163;48.778;2.308;2023-04-15T01:47:47;99618.98;;;17.39;32.26
62237;BME280;69163;48.778;2.308;2023-04-15T01:50:13;99626.97;;;17.64;32.27
62237;BME280;69163;48.778;2.308;2023-04-15T01:52:38;99626.57;;;17.66;32.21
62237;BME280;69163;48.778;2.308;2023-04-15T01:55:04;99626.31;;;17.63;32.23
62237;BME280;69163;48.778;2.308;2023-04-15T01:57:28;99628.09;;;17.63;32.25
62237;BME280;69163;48.778;2.308;2023-04-15T01:59:54;99633.44;;;17.61;32.27
62237;BME280;69163;48.778;2.308;2023-04-15T02:02:19;99628.07;;;17.71;32.17
62237;BME280;69163;48.778;2.308;2023-04-15T02:04:44;99627.47;;;17.35;32.28
62237;BME280;69163;48.778;2.308;2023-04-15T02:07:10;99627.59;;;17.55;32.32
62237;BME280;69163;48.778;2.308;2023-04-15T02:09:35;99619.63;;;17.43;32.21
62237;BME280;69163;48.778;2.308;2023-04-15T02:12:00;99622.83;;;17.61;32.23
62237;BME280;69163;48.778;2.308;2023-04-15T02:14:26;99628.19;;;17.69;32.16
62237;BME280;69163;48.778;2.308;2023-04-15T02:16:51;99628.93;;;17.69;32.15
62237;BME280;69163;48.778;2.308;2023-04-15T02:19:16;99625.84;;;17.63;32.20
62237;BME280;69163;48.778;2.308;2023-04-15T02:21:41;99630.64;;;18.08;32.23
62237;BME280;69163;48.778;2.308;2023-04-15T02:24:06;99629.41;;;17.59;32.24
62237;BME280;69163;48.778;2.308;2023-04-15T02:26:31;99632.45;;;17.52;32.30
62237;BME280;69163;48.778;2.308;2023-04-15T02:28:56;99632.25;;;17.58;32.24
62237;BME280;69163;48.778;2.308;2023-04-15T02:31:22;99631.63;;;17.38;32.21
62237;BME280;69163;48.778;2.308;2023-04-15T02:33:47;99638.22;;;17.57;32.25
62237;BME280;69163;48.778;2.308;2023-04-15T02:36:12;99639.97;;;17.52;32.27
62237;BME280;69163;48.778;2.308;2023-04-15T02:38:37;99646.08;;;17.42;32.13
62237;BME280;69163;48.778;2.308;2023-04-15T02:41:02;99644.92;;;17.62;32.17
62237;BME280;69163;48.778;2.308;2023-04-15T02:43:28;99653.52;;;17.67;32.09
62237;BME280;69163;48.778;2.308;2023-04-15T02:45:53;99657.44;;;17.57;32.22
62237;BME280;69163;48.778;2.308;2023-04-15T02:48:19;99662.35;;;17.61;32.16
62237;BME280;69163;48.778;2.308;2023-04-15T02:50:44;99665.47;;;17.54;32.24
62237;BME280;69163;48.778;2.308;2023-04-15T02:53:09;99669.32;;;17.63;32.16
62237;BME280;69163;48.778;2.308;2023-04-15T02:55:35;99668.09;;;17.56;32.22
62237;BME280;69163;48.778;2.308;2023-04-15T02:58:00;99676.42;;;17.29;32.24
62237;BME280;69163;48.778;2.308;2023-04-15T03:00:25;99684.33;;;17.58;32.20
62237;BME280;69163;48.778;2.308;2023-04-15T03:02:50;99688.77;;;17.57;32.20
62237;BME280;69163;48.778;2.308;2023-04-15T03:05:15;99696.78;;;17.54;32.24
62237;BME280;69163;48.778;2.308;2023-04-15T03:07:41;99702.12;;;17.37;32.40
62237;BME280;69163;48.778;2.308;2023-04-15T03:10:07;99704.89;;;17.70;32.30
62237;BME280;69163;48.778;2.308;2023-04-15T03:12:31;99709.34;;;17.43;32.34
62237;BME280;69163;48.778;2.308;2023-04-15T03:14:56;99709.54;;;17.54;32.24
62237;BME280;69163;48.778;2.308;2023-04-15T03:17:21;99713.40;;;17.59;32.17
62237;BME280;69163;48.778;2.308;2023-04-15T03:19:46;99720.15;;;17.54;32.21
62237;BME280;69163;48.778;2.308;2023-04-15T03:22:11;99724.07;;;17.32;32.22
62237;BME280;69163;48.778;2.308;2023-04-15T03:24:37;99727.99;;;17.26;32.25
62237;BME280;69163;48.778;2.308;2023-04-15T03:27:02;99732.24;;;17.28;32.23
62237;BME280;69163;48.778;2.308;2023-04-15T03:29:27;99737.93;;;17.53;32.24
62237;BME280;69163;48.778;2.308;2023-04-15T03:31:53;99740.17;;;17.57;32.18
62237;BME280;69163;48.778;2.308;2023-04-15T03:34:18;99738.66;;;17.32;32.19
62237;BME280;69163;48.778;2.308;2023-04-15T03:36:43;99743.70;;;17.55;32.20
62237;BME280;69163;48.778;2.308;2023-04-15T03:39:09;99740.42;;;17.75;32.22
62237;BME280;69163;48.778;2.308;2023-04-15T03:41:34;99746.44;;;17.49;32.24
62237;BME280;69163;48.778;2.308;2023-04-15T03:43:59;99749.15;;;17.55;32.19
62237;BME280;69163;48.778;2.308;2023-04-15T03:46:24;99756.38;;;17.53;32.18
62237;BME280;69163;48.778;2.308;2023-04-15T03:48:49;99760.18;;;17.27;32.25
62237;BME280;69163;48.778;2.308;2023-04-15T03:51:14;99761.48;;;18.03;32.16
62237;BME280;69163;48.778;2.308;2023-04-15T03:53:39;99763.86;;;17.45;32.27
62237;BME280;69163;48.778;2.308;2023-04-15T03:56:05;99771.23;;;17.50;32.20
62237;BME280;69163;48.778;2.308;2023-04-15T03:58:30;99770.72;;;17.48;32.21
62237;BME280;69163;48.778;2.308;2023-04-15T04:00:55;99770.74;;;17.49;32.20
62237;BME280;69163;48.778;2.308;2023-04-15T04:03:21;99773.19;;;17.28;32.18
62237;BME280;69163;48.778;2.308;2023-04-15T04:05:46;99773.39;;;17.55;32.10
62237;BME280;69163;48.778;2.308;2023-04-15T04:08:12;99778.78;;;17.51;32.15
62237;BME280;69163;48.778;2.308;2023-04-15T04:10:37;99779.54;;;17.59;32.05
62237;BME280;69163;48.778;2.308;2023-04-15T04:13:02;99783.39;;;17.53;32.12
62237;BME280;69163;48.778;2.308;2023-04-15T04:15:27;99786.39;;;17.73;32.13
62237;BME280;69163;48.778;2.308;2023-04-15T04:17:52;99786.66;;;17.79;32.09
62237;BME280;69163;48.778;2.308;2023-04-15T04:20:17;99791.46;;;17.95;32.15
62237;BME280;69163;48.778;2.308;2023-04-15T04:22:42;99791.72;;;17.48;32.15
62237;BME280;69163;48.778;2.308;2023-04-15T04:25:08;99790.49;;;17.46;32.15
62237;BME280;69163;48.778;2.308;2023-04-15T04:27:33;99789.45;;;17.45;32.15
62237;BME280;69163;48.778;2.308;2023-04-15T04:29:58;99787.90;;;17.71;32.14
62237;BME280;69163;48.778;2.308;2023-04-15T04:32:24;99790.95;;;17.40;32.18
62237;BME280;69163;48.778;2.308;2023-04-15T04:34:49;99792.69;;;17.68;32.16
62237;BME280;69163;48.778;2.308;2023-04-15T04:37:14;99791.30;;;17.92;32.14
62237;BME280;69163;48.778;2.308;2023-04-15T04:39:39;99799.08;;;17.50;32.07
62237;BME280;69163;48.778;2.308;2023-04-15T04:42:04;99800.92;;;17.48;32.10
62237;BME280;69163;48.778;2.308;2023-04-15T04:44:29;99805.59;;;17.45;32.12
62237;BME280;69163;48.778;2.308;2023-04-15T04:46:54;99808.52;;;17.49;32.07
62237;BME280;69163;48.778;2.308;2023-04-15T04:49:20;99811.67;;;17.25;32.06
62237;BME280;69163;48.778;2.308;2023-04-15T04:51:45;99821.45;;;17.43;32.11
62237;BME280;69163;48.778;2.308;2023-04-15T04:54:10;99822.83;;;17.63;32.15
62237;BME280;69163;48.778;2.308;2023-04-15T04:56:36;99825.70;;;17.47;32.07
62237;BME280;69163;48.778;2.308;2023-04-15T04:59:01;99832.54;;;17.44;32.08
62237;BME280;69163;48.778;2.308;2023-04-15T05:01:26;99833.90;;;17.20;32.08
62237;BME280;69163;48.778;2.308;2023-04-15T05:03:51;99838.25;;;17.41;32.10
62237;BME280;69163;48.778;2.308;2023-04-15T05:06:17;99838.68;;;17.44;32.07
62237;BME280;69163;48.778;2.308;2023-04-15T05:08:42;99843.45;;;17.43;32.09
62237;BME280;69163;48.778;2.308;2023-04-15T05:11:07;99850.19;;;17.39;32.13
62237;BME280;69163;48.778;2.308;2023-04-15T05:13:33;99855.93;;;17.48;32.03
62237;BME280;69163;48.778;2.308;2023-04-15T05:15:58;99865.73;;;17.51;31.99
62237;BME280;69163;48.778;2.308;2023-04-15T05:18:23;99871.41;;;17.50;32.00
62237;BME280;69163;48.778;2.308;2023-04-15T05:20:48;99876.56;;;17.46;32.02
62237;BME280;69163;48.778;2.308;2023-04-15T05:23:13;99875.70;;;17.43;32.05
62237;BME280;69163;48.778;2.308;2023-04-15T05:25:39;99880.08;;;17.47;32.00
62237;BME280;69163;48.778;2.308;2023-04-15T05:28:04;99884.77;;;17.72;31.99
62237;BME280;69163;48.778;2.308;2023-04-15T05:30:29;99891.37;;;17.48;31.99
62237;BME280;69163;48.778;2.308;2023-04-15T05:32:54;99898.99;;;17.50;31.95
62237;BME280;69163;48.778;2.308;2023-04-15T05:35:19;99901.98;;;17.41;32.03
62237;BME280;69163;48.778;2.308;2023-04-15T05:37:44;99906.60;;;17.47;31.99
62237;BME280;69163;48.778;2.308;2023-04-15T05:40:10;99910.25;;;17.35;32.09
62237;BME280;69163;48.778;2.308;2023-04-15T05:42:35;99915.68;;;17.43;32.02
62237;BME280;69163;48.778;2.308;2023-04-15T05:45:00;99919.34;;;17.46;31.97
62237;BME280;69163;48.778;2.308;2023-04-15T05:47:26;99930.03;;;17.48;31.95
62237;BME280;69163;48.778;2.308;2023-04-15T05:49:51;99929.06;;;17.43;31.98
62237;BME280;69163;48.778;2.308;2023-04-15T05:52:16;99934.00;;;17.43;32.00
62237;BME280;69163;48.778;2.308;2023-04-15T05:54:41;99938.11;;;17.43;31.99
62237;BME280;69163;48.778;2.308;2023-04-15T05:57:07;99943.91;;;17.50;31.93
62237;BME280;69163;48.778;2.308;2023-04-15T05:59:32;99947.53;;;17.74;31.92
62237;BME280;69163;48.778;2.308;2023-04-15T06:01:57;99953.68;;;17.62;32.04
62237;BME280;69163;48.778;2.308;2023-04-15T06:04:22;99959.38;;;17.43;31.98
62237;BME280;69163;48.778;2.308;2023-04-15T06:06:47;99963.29;;;17.45;31.96
62237;BME280;69163;48.778;2.308;2023-04-15T06:09:12;99967.63;;;17.40;32.00
62237;BME280;69163;48.778;2.308;2023-04-15T06:11:37;99970.15;;;17.43;31.99
62237;BME280;69163;48.778;2.308;2023-04-15T06:14:03;99969.45;;;17.45;31.95
62237;BME280;69163;48.778;2.308;2023-04-15T06:16:28;99976.08;;;17.50;31.90
62237;BME280;69163;48.778;2.308;2023-04-15T06:18:53;99983.72;;;17.49;31.91
62237;BME280;69163;48.778;2.308;2023-04-15T06:21:19;99992.73;;;17.53;31.86
62237;BME280;69163;48.778;2.308;2023-04-15T06:23:44;99998.86;;;17.51;31.89
62237;BME280;69163;48.778;2.308;2023-04-15T06:26:09;100003.84;;;17.53;31.84
62237;BME280;69163;48.778;2.308;2023-04-15T06:28:34;100010.48;;;17.25;31.88
62237;BME280;69163;48.778;2.308;2023-04-15T06:30:59;100010.78;;;17.46;31.91
62237;BME280;69163;48.778;2.308;2023-04-15T06:33:25;100024.73;;;17.35;32.02
62237;BME280;69163;48.778;2.308;2023-04-15T06:35:50;100040.02;;;17.17;31.98
62237;BME280;69163;48.778;2.308;2023-04-15T06:38:15;100041.19;;;17.46;31.93
62237;BME280;69163;48.778;2.308;2023-04-15T06:40:40;100040.46;;;17.19;31.95
62237;BME280;69163;48.778;2.308;2023-04-15T06:43:05;100053.62;;;17.49;31.89
62237;BME280;69163;48.778;2.308;2023-04-15T06:45:31;100057.81;;;17.48;31.89
62237;BME280;69163;48.778;2.308;2023-04-15T06:47:56;100068.16;;;17.46;31.91
62237;BME280;69163;48.778;2.308;2023-04-15T06:50:21;100071.29;;;17.50;31.87
62237;BME280;69163;48.778;2.308;2023-04-15T06:52:46;100076.40;;;17.42;31.96
62237;BME280;69163;48.778;2.308;2023-04-15T06:55:12;100079.94;;;17.18;31.95
62237;BME280;69163;48.778;2.308;2023-04-15T06:57:37;100089.07;;;17.46;31.90
62237;BME280;69163;48.778;2.308;2023-04-15T07:00:03;100092.99;;;17.46;31.91
62237;BME280;69163;48.778;2.308;2023-04-15T07:02:27;100092.13;;;17.42;31.93
62237;BME280;69163;48.778;2.308;2023-04-15T07:04:53;100099.99;;;17.72;31.88
62237;BME280;69163;48.778;2.308;2023-04-15T07:07:18;100102.02;;;17.42;31.94
62237;BME280;69163;48.778;2.308;2023-04-15T07:09:44;100103.74;;;17.30;32.07
62237;BME280;69163;48.778;2.308;2023-04-15T07:12:09;100114.89;;;17.39;31.99
62237;BME280;69163;48.778;2.308;2023-04-15T07:14:34;100123.39;;;17.55;32.07
62237;BME280;69163;48.778;2.308;2023-04-15T07:16:59;100128.51;;;17.29;32.08
62237;BME280;69163;48.778;2.308;2023-04-15T07:19:24;100130.95;;;17.81;32.05
62237;BME280;69163;48.778;2.308;2023-04-15T07:21:50;100138.31;;;17.84;32.02
62237;BME280;69163;48.778;2.308;2023-04-15T07:24:14;100134.91;;;17.36;32.02
62237;BME280;69163;48.778;2.308;2023-04-15T07:26:39;100138.90;;;17.41;31.99
62237;BME280;69163;48.778;2.308;2023-04-15T07:29:05;100141.28;;;17.40;31.97
62237;BME280;69163;48.778;2.308;2023-04-15T07:31:30;100149.73;;;17.36;32.02
62237;BME280;69163;48.778;2.308;2023-04-15T07:33:55;100154.18;;;17.40;31.96
62237;BME280;69163;48.778;2.308;2023-04-15T07:36:20;100156.89;;;17.21;31.92
62237;BME280;69163;48.778;2.308;2023-04-15T07:38:45;100161.52;;;17.45;31.92
62237;BME280;69163;48.778;2.308;2023-04-15T07:41:11;100167.38;;;17.12;32.01
62237;BME280;69163;48.778;2.308;2023-04-15T07:43:36;100174.80;;;17.40;31.98
62237;BME280;69163;48.778;2.308;2023-04-15T07:46:01;100185.80;;;17.40;31.98
62237;BME280;69163;48.778;2.308;2023-04-15T07:48:26;100188.91;;;17.13;31.99
62237;BME280;69163;48.778;2.308;2023-04-15T07:50:52;100197.64;;;17.39;31.98
62237;BME280;69163;48.778;2.308;2023-04-15T07:53:17;100206.94;;;17.44;31.93
62237;BME280;69163;48.778;2.308;2023-04-15T07:55:42;100211.60;;;17.42;31.95
62237;BME280;69163;48.778;2.308;2023-04-15T07:58:07;100213.74;;;17.46;31.92
62237;BME280;69163;48.778;2.308;2023-04-15T08:00:33;100212.13;;;17.42;31.95
62237;BME280;69163;48.778;2.308;2023-04-15T08:02:58;100219.05;;;17.37;31.99
62237;BME280;69163;48.778;2.308;2023-04-15T08:05:23;100224.55;;;17.38;31.99
62237;BME280;69163;48.778;2.308;2023-04-15T08:07:49;100226.11;;;17.07;32.05
62237;BME280;69163;48.778;2.308;2023-04-15T08:10:14;100234.45;;;17.31;32.06
62237;BME280;69163;48.778;2.308;2023-04-15T08:12:39;100238.35;;;17.30;32.07
62237;BME280;69163;48.778;2.308;2023-04-15T08:15:05;100241.56;;;17.63;31.96
62237;BME280;69163;48.778;2.308;2023-04-15T08:17:30;100250.71;;;17.57;32.04
62237;BME280;69163;48.778;2.308;2023-04-15T08:19:55;100259.17;;;17.87;31.98
62237;BME280;69163;48.778;2.308;2023-04-15T08:22:20;100261.94;;;17.35;32.02
62237;BME280;69163;48.778;2.308;2023-04-15T08:24:45;100269.11;;;17.34;32.05
62237;BME280;69163;48.778;2.308;2023-04-15T08:27:10;100275.17;;;17.40;31.98
62237;BME280;69163;48.778;2.308;2023-04-15T08:29:35;100285.86;;;17.36;32.01
62237;BME280;69163;48.778;2.308;2023-04-15T08:32:01;100281.93;;;17.35;32.01
62237;BME280;69163;48.778;2.308;2023-04-15T08:34:26;100286.01;;;17.24;32.12
62237;BME280;69163;48.778;2.308;2023-04-15T08:36:51;100297.87;;;17.13;32.00
62237;BME280;69163;48.778;2.308;2023-04-15T08:39:17;100298.75;;;17.37;32.00
62237;BME280;69163;48.778;2.308;2023-04-15T08:41:45;100306.32;;;17.62;31.99
62237;BME280;69163;48.778;2.308;2023-04-15T08:44:08;100310.13;;;17.40;31.96
62237;BME280;69163;48.778;2.308;2023-04-15T08:46:33;100314.19;;;17.62;31.98
62237;BME280;69163;48.778;2.308;2023-04-15T08:48:58;100314.04;;;17.34;32.01
62237;BME280;69163;48.778;2.308;2023-04-15T08:51:23;100322.22;;;17.40;31.99
62237;BME280;69163;48.778;2.308;2023-04-15T08:53:48;100329.88;;;17.67;31.95
62237;BME280;69163;48.778;2.308;2023-04-15T08:56:14;100328.90;;;17.36;32.01
62237;BME280;69163;48.778;2.308;2023-04-15T08:58:38;100336.63;;;17.29;32.10
62237;BME280;69163;48.778;2.308;2023-04-15T09:01:03;100344.16;;;17.28;32.16
62237;BME280;69163;48.778;2.308;2023-04-15T09:03:29;100348.99;;;17.36;32.05
62237;BME280;69163;48.778;2.308;2023-04-15T09:05:54;100352.01;;;17.26;32.14
62237;BME280;69163;48.778;2.308;2023-04-15T09:08:19;100360.05;;;17.35;32.08
62237;BME280;69163;48.778;2.308;2023-04-15T09:10:45;100362.08;;;17.37;32.05
62237;BME280;69163;48.778;2.308;2023-04-15T09:13:10;100368.65;;;17.28;32.14
62237;BME280;69163;48.778;2.308;2023-04-15T09:15:37;100376.28;;;17.58;32.09
62237;BME280;69163;48.778;2.308;2023-04-15T09:18:00;100377.75;;;17.40;32.02
62237;BME280;69163;48.778;2.308;2023-04-15T09:20:25;100381.31;;;17.64;32.03
62237;BME280;69163;48.778;2.308;2023-04-15T09:22:51;100388.57;;;17.36;32.06
62237;BME280;69163;48.778;2.308;2023-04-15T09:25:26;100392.42;;;17.41;32.00
62237;BME280;69163;48.778;2.308;2023-04-15T09:27:47;100396.66;;;17.44;31.96
62237;BME280;69163;48.778;2.308;2023-04-15T09:30:08;100408.61;;;17.44;31.99
62237;BME280;69163;48.778;2.308;2023-04-15T09:32:31;100413.01;;;17.92;31.99
62237;BME280;69163;48.778;2.308;2023-04-15T09:34:56;100420.25;;;17.69;31.99
62237;BME280;69163;48.778;2.308;2023-04-15T09:39:48;100430.93;;;17.40;32.02
62237;BME280;69163;48.778;2.308;2023-04-15T09:42:12;100435.99;;;17.40;32.02
62237;BME280;69163;48.778;2.308;2023-04-15T09:44:37;100436.68;;;17.46;31.98
62237;BME280;69163;48.778;2.308;2023-04-15T09:47:03;100446.21;;;17.38;32.09
62237;BME280;69163;48.778;2.308;2023-04-15T09:49:28;100452.31;;;17.50;33.17
62237;BME280;69163;48.778;2.308;2023-04-15T09:51:57;100456.85;;;17.43;33.42
62237;BME280;69163;48.778;2.308;2023-04-15T09:54:20;100464.14;;;17.77;33.86
62237;BME280;69163;48.778;2.308;2023-04-15T09:56:44;100467.70;;;17.94;33.84
62237;BME280;69163;48.778;2.308;2023-04-15T09:59:09;100478.58;;;18.05;33.92
62237;BME280;69163;48.778;2.308;2023-04-15T10:01:33;100482.88;;;17.88;34.16
62237;BME280;69163;48.778;2.308;2023-04-15T10:04:02;100485.57;;;17.84;34.35
62237;BME280;69163;48.778;2.308;2023-04-15T10:06:25;100486.33;;;17.79;34.55
62237;BME280;69163;48.778;2.308;2023-04-15T10:08:50;100492.81;;;17.67;34.80
62237;BME280;69163;48.778;2.308;2023-04-15T10:11:17;100496.50;;;18.16;34.84
62237;BME280;69163;48.778;2.308;2023-04-15T10:13:41;100492.69;;;17.86;34.95
62237;BME280;69163;48.778;2.308;2023-04-15T10:16:08;100502.65;;;17.64;34.91
62237;BME280;69163;48.778;2.308;2023-04-15T10:18:34;100505.54;;;17.38;35.22
62237;BME280;69163;48.778;2.308;2023-04-15T10:20:56;100508.93;;;17.27;35.42
62237;BME280;69163;48.778;2.308;2023-04-15T10:23:22;100513.47;;;17.22;35.56
62237;BME280;69163;48.778;2.308;2023-04-15T10:25:46;100518.40;;;17.79;35.45
62237;BME280;69163;48.778;2.308;2023-04-15T10:28:11;100520.60;;;17.79;35.46
62237;BME280;69163;48.778;2.308;2023-04-15T10:30:37;100521.68;;;17.71;35.50
62237;BME280;69163;48.778;2.308;2023-04-15T10:33:02;100526.85;;;17.41;35.61
62237;BME280;69163;48.778;2.308;2023-04-15T10:35:27;100529.85;;;17.22;35.53
62237;BME280;69163;48.778;2.308;2023-04-15T10:37:52;100532.55;;;17.19;35.58
62237;BME280;69163;48.778;2.308;2023-04-15T10:40:25;100538.83;;;17.25;35.51
62237;BME280;69163;48.778;2.308;2023-04-15T10:42:43;100544.82;;;17.28;35.44
62237;BME280;69163;48.778;2.308;2023-04-15T10:45:15;100545.16;;;17.34;35.37
62237;BME280;69163;48.778;2.308;2023-04-15T10:47:33;100542.29;;;17.02;35.50
62237;BME280;69163;48.778;2.308;2023-04-15T10:50:00;100546.55;;;17.30;35.44
62237;BME280;69163;48.778;2.308;2023-04-15T10:52:25;100550.13;;;17.40;35.28
62237;BME280;69163;48.778;2.308;2023-04-15T10:54:49;100550.84;;;17.72;35.16
62237;BME280;69163;48.778;2.308;2023-04-15T10:57:16;100556.91;;;17.38;35.24
62237;BME280;69163;48.778;2.308;2023-04-15T11:02:05;100566.89;;;17.42;35.28
62237;BME280;69163;48.778;2.308;2023-04-15T11:07:04;100568.19;;;17.43;35.32
62237;BME280;69163;48.778;2.308;2023-04-15T11:09:30;100574.48;;;17.48;35.29
62237;BME280;69163;48.778;2.308;2023-04-15T11:14:14;100585.84;;;17.45;35.43
62237;BME280;69163;48.778;2.308;2023-04-15T11:16:41;100587.37;;;17.19;35.49
62237;BME280;69163;48.778;2.308;2023-04-15T11:19:01;100589.54;;;17.37;35.54
62237;BME280;69163;48.778;2.308;2023-04-15T11:21:26;100595.88;;;17.53;35.31
62237;BME280;69163;48.778;2.308;2023-04-15T11:23:51;100604.06;;;17.51;35.28
62237;BME280;69163;48.778;2.308;2023-04-15T11:26:16;100599.57;;;17.30;35.18
62237;BME280;69163;48.778;2.308;2023-04-15T11:28:43;100605.20;;;17.58;35.21
62237;BME280;69163;48.778;2.308;2023-04-15T11:31:08;100601.45;;;17.53;35.26
62237;BME280;69163;48.778;2.308;2023-04-15T11:33:32;100607.96;;;17.13;35.20
62237;BME280;69163;48.778;2.308;2023-04-15T11:35:58;100608.38;;;17.35;35.23
62237;BME280;69163;48.778;2.308;2023-04-15T11:38:23;100615.45;;;17.59;35.25
62237;BME280;69163;48.778;2.308;2023-04-15T11:40:49;100620.33;;;17.59;35.17
62237;BME280;69163;48.778;2.308;2023-04-15T11:43:15;100630.25;;;17.60;35.18
62237;BME280;69163;48.778;2.308;2023-04-15T11:45:49;100632.09;;;17.35;35.05
62237;BME280;69163;48.778;2.308;2023-04-15T11:48:06;100638.85;;;17.62;35.03
62237;BME280;69163;48.778;2.308;2023-04-15T11:50:28;100649.57;;;17.68;35.02
62237;BME280;69163;48.778;2.308;2023-04-15T11:52:54;100648.33;;;17.43;35.06
62237;BME280;69163;48.778;2.308;2023-04-15T11:55:19;100659.81;;;17.67;35.02
62237;BME280;69163;48.778;2.308;2023-04-15T11:57:44;100657.80;;;17.45;34.99
62237;BME280;69163;48.778;2.308;2023-04-15T12:00:10;100663.46;;;17.47;34.95
62237;BME280;69163;48.778;2.308;2023-04-15T12:02:36;100676.25;;;17.46;34.93
62237;BME280;69163;48.778;2.308;2023-04-15T12:05:03;100674.83;;;17.48;34.88
62237;BME280;69163;48.778;2.308;2023-04-15T12:07:25;100672.69;;;17.43;34.88
62237;BME280;69163;48.778;2.308;2023-04-15T12:09:54;100680.37;;;17.68;34.91
62237;BME280;69163;48.778;2.308;2023-04-15T12:12:18;100687.40;;;17.73;34.87
62237;BME280;69163;48.778;2.308;2023-04-15T12:14:41;100694.03;;;17.70;34.92
62237;BME280;69163;48.778;2.308;2023-04-15T12:17:06;100698.15;;;17.49;34.89
62237;BME280;69163;48.778;2.308;2023-04-15T12:19:36;100698.14;;;17.76;34.89
62237;BME280;69163;48.778;2.308;2023-04-15T12:21:59;100701.88;;;17.67;34.87
62237;BME280;69163;48.778;2.308;2023-04-15T12:24:22;100707.58;;;17.69;34.85
62237;BME280;69163;48.778;2.308;2023-04-15T12:26:48;100710.87;;;17.75;34.84
62237;BME280;69163;48.778;2.308;2023-04-15T12:29:13;100719.76;;;17.43;34.92
62237;BME280;69163;48.778;2.308;2023-04-15T12:31:46;100723.07;;;17.49;34.80
62237;BME280;69163;48.778;2.308;2023-04-15T12:34:06;100729.81;;;17.83;34.23
62237;BME280;69163;48.778;2.308;2023-04-15T12:36:28;100728.41;;;17.55;34.41
62237;BME280;69163;48.778;2.308;2023-04-15T12:38:53;100734.61;;;17.79;34.66
62237;BME280;69163;48.778;2.308;2023-04-15T12:41:20;100736.73;;;17.61;34.57
62237;BME280;69163;48.778;2.308;2023-04-15T12:43:44;100739.04;;;17.84;34.63
62237;BME280;69163;48.778;2.308;2023-04-15T12:46:09;100740.78;;;17.90;34.80
62237;BME280;69163;48.778;2.308;2023-04-15T12:48:35;100746.51;;;17.49;34.71
62237;BME280;69163;48.778;2.308;2023-04-15T12:50:59;100752.82;;;17.94;34.71
62237;BME280;69163;48.778;2.308;2023-04-15T12:53:24;100758.85;;;17.75;34.92
62237;BME280;69163;48.778;2.308;2023-04-15T12:55:49;100765.01;;;17.83;34.93